Currently 60°F in French Valley, California, USA
60°F
76°F / 60°F
3 mph SE
0.00"
Saturday, June 23, 2018 10:22 PM PDT

French Valley, California Weather Summary
Last 36 Hours

Temperature Winds Hourly Humidity Dewpoint
Time Report Norm Report Norm Max Gusts Precip. Rpt. Norm Rpt. Norm Pressure
1Sat 10:22 PM  59.8°F  68°F  3 mph SE  2 mph  6 mph  0.00"  95%  73%  58°F  58°F  29.96"
3Sat 10:20 PM  59.7°F  68°F  3 mph SE  2 mph  6 mph  ----  95%  73%  58°F  58°F  29.96"
Sat 10:00 PM  60.0°F  68°F  3 mph SE  2 mph  9 mph  0.00"  94%  71%  58°F  58°F  29.96"
Sat 09:00 PM  61.2°F  71°F  4 mph SE  3 mph  9 mph  0.00"  91%  66%  59°F  58°F  29.93"
Sat 08:00 PM  63.9°F  74°F  6 mph S  5 mph  9 mph  0.00"  86%  59%  59°F  58°F  29.91"
Sat 07:00 PM  66.0°F  78°F  6 mph SE  7 mph  12 mph  0.00"  81%  49%  60°F  57°F  29.90"
Sat 06:00 PM  69.5°F  82°F  7 mph S  7 mph  15 mph  0.00"  74%  42%  61°F  56°F  29.90"
Sat 05:00 PM  71.3°F  84°F  3 mph SW  9 mph  15 mph  0.00"  71%  38%  61°F  55°F  29.90"
Sat 04:00 PM  74.5°F  86°F  8 mph SW  9 mph  17 mph  0.00"  65%  36%  62°F  54°F  29.91"
Sat 03:00 PM  75.1°F  87°F  5 mph S  8 mph  17 mph  0.00"  64%  33%  62°F  54°F  29.92"
2Sat 02:54 PM  75.9°F  87°F  6 mph S  8 mph  16 mph  ----  62%  33%  61°F  54°F  29.92"
Sat 02:00 PM  74.7°F  87°F  6 mph SW  7 mph  18 mph  0.00"  65%  33%  62°F  54°F  29.93"
Sat 01:00 PM  74.2°F  86°F  6 mph SW  6 mph  17 mph  0.00"  67%  35%  62°F  54°F  29.94"
Sat 12:00 PM  74.5°F  84°F  7 mph S  5 mph  16 mph  0.00"  66%  37%  62°F  54°F  29.95"
Sat 11:00 AM  73.1°F  81°F  5 mph SW  4 mph  12 mph  0.00"  68%  43%  62°F  56°F  29.95"
Sat 10:00 AM  70.0°F  77°F  5 mph S  3 mph  8 mph  0.00"  75%  52%  61°F  57°F  29.94"
Sat 09:00 AM  64.5°F  72°F  3 mph W  1 mph  6 mph  0.00"  96%  63%  63°F  58°F  29.94"
Sat 08:00 AM  60.6°F  67°F  1 mph S  1 mph  7 mph  0.00"  99%  74%  60°F  58°F  29.93"
Sat 07:00 AM  60.5°F  62°F  4 mph S  calm  4 mph  0.00"  98%  81%  60°F  56°F  29.91"
Sat 06:00 AM  60.5°F  60°F  calm  1 mph  3 mph  0.00"  98%  83%  60°F  55°F  29.91"
Sat 05:00 AM  60.5°F  61°F  calm  calm  5 mph  0.00"  98%  83%  60°F  55°F  29.90"
Sat 04:00 AM  61.0°F  61°F  2 mph SE  1 mph  7 mph  0.00"  98%  82%  61°F  56°F  29.90"
Sat 03:00 AM  61.4°F  62°F  4 mph SE  1 mph  8 mph  0.00"  98%  81%  61°F  56°F  29.89"
Sat 02:00 AM  61.4°F  63°F  3 mph S  1 mph  9 mph  0.00"  99%  80%  61°F  56°F  29.90"
Sat 01:00 AM  61.3°F  64°F  6 mph S  1 mph  7 mph  0.00"  98%  78%  61°F  57°F  29.90"
Sat 12:00 AM  62.5°F  65°F  3 mph S  1 mph  6 mph  0.00"  96%  77%  61°F  57°F  29.90"
Fri 11:00 PM  63.2°F  66°F  5 mph SE  1 mph  9 mph  0.00"  95%  74%  62°F  58°F  29.91"
Fri 10:00 PM  65.5°F  68°F  4 mph S  2 mph  9 mph  0.00"  89%  71%  62°F  58°F  29.91"
Fri 09:00 PM  68.0°F  70°F  5 mph S  3 mph  11 mph  0.00"  83%  65%  62°F  58°F  29.89"
Fri 08:00 PM  73.4°F  74°F  7 mph SE  5 mph  13 mph  0.00"  69%  58%  62°F  58°F  29.87"
Fri 07:00 PM  80.4°F  78°F  7 mph S  7 mph  14 mph  0.00"  46%  48%  57°F  56°F  29.87"
Fri 06:00 PM  86.5°F  81°F  9 mph S  8 mph  14 mph  0.00"  36%  42%  56°F  55°F  29.85"
Fri 05:00 PM  90.6°F  83°F  7 mph SW  9 mph  15 mph  0.00"  29%  38%  53°F  54°F  29.85"
Fri 04:00 PM  92.0°F  85°F  9 mph S  9 mph  15 mph  0.00"  28%  35%  54°F  54°F  29.85"
Fri 03:00 PM  92.1°F  87°F  3 mph SW  8 mph  15 mph  0.00"  27%  33%  53°F  53°F  29.88"
Fri 02:00 PM  91.6°F  87°F  3 mph SW  7 mph  15 mph  0.00"  29%  33%  54°F  53°F  29.90"
Fri 01:00 PM  89.0°F  86°F  2 mph SW  6 mph  12 mph  0.00"  36%  35%  58°F  54°F  29.93"
Fri 12:00 PM  86.0°F  84°F  4 mph SW  5 mph  10 mph  0.00"  41%  38%  59°F  54°F  29.96"
Fri 11:00 AM  81.3°F  81°F  6 mph S  4 mph  9 mph  0.00"  51%  43%  61°F  55°F  29.98"

  1. Current weather data. No green row appears if the current weather data is also the high or low for the current day.
  2. High temperature for the current day.
  3. Low temperature for the current day.

The French Valley, California weather pages are a service of WeatherCurrents. French Valley is located in southwestern Riverside County, California, north of Temecula, east of Murrieta, and south of Winchester. French Valley is bordered by Lake Skinner.
Copyright ©Sat Jun 23 22:22:46 PDT 2018  WeatherCurrents. All rights reserved. - Submit questions and comments - Privacy Policy

This page automatically refreshes every 10 minutes.